Impacts TAF Board
For situational awareness. Not to be used for flight planning purposes.
IDs:

KINW - Winslow/Lindberg Rgn, AZ, US

Issued at 1720 UTC 02 Aug 2021
Updated at 2059 UTC 02 Aug 2021
Potential Impact None Slight Moderate High
Time2056Z 02/21Z 02/22Z 02/23Z 03/00Z 03/01Z 03/02Z 03/03Z 03/04Z 03/05Z 03/06Z 03/07Z 03/08Z 03/09Z>>
Type OBS PRVL PRVL PRVL PRVL PRVL PRVL PRVL PRVL PRVL PRVL PRVL PRVL PRVL
VIS 10 >6 >6 >6 >6 >6 >6 >6 >6 >6 >6 >6 >6 >6
CIG -- -- -- -- -- -- -- -- -- -- -- -- -- --
Cover CLR FEW FEW FEW FEW FEW FEW FEW FEW FEW FEW FEW FEW FEW
FltCat VFR VFR VFR VFR VFR VFR VFR VFR VFR VFR VFR VFR VFR VFR
WX -- VCTS VCTS VCTS -- -- -- -- -- -- -- -- -- --
WDir VRB 330 330 330 320 320 320 320 320 VRB VRB VRB VRB VRB
WSpd 0 8 8 8 8 8 8 8 8 5 5 5 5 5
WGst -- 14 14 14 14 14 14 14 14 -- -- -- -- --
Raw TAF
KINW 021720Z 0218/0318 VRB04KT P6SM SKC
  FM022100 33008G14KT P6SM VCTS FEW090CB FEW110
  FM030000 32008G14KT P6SM FEW120 FEW250
  FM030500 VRB05KT P6SM FEW120 FEW250


Raw METAR
KINW 022056Z AUTO 00000KT 10SM CLR 33/09 A3023 RMK AO2 SLP153 T03280094 56021
KINW 021956Z AUTO 03007KT 340V080 10SM CLR 32/09 A3025 RMK AO2 SLP159 T03220089
KINW 021856Z AUTO 33006KT 10SM CLR 31/14 A3027 RMK AO2 SLP170 T03060139
KINW 021756Z AUTO VRB03KT 10SM CLR 29/14 A3030 RMK AO2 SLP182 T02890144 10289 20167 57010

METAR Board
Radar Display
Forecast Discussion
For situational awareness. Not to be used for flight planning purposes.